Time;durP1;ratioP1;P1;durP2;ratioP2;P2;SDS_P1;SDS_P2;PMS_P1;PMS_P2;Temp;Humidity;BMP_temperature;BMP_pressure;BME280_temperature;BME280_humidity;BME280_pressure;Samples;Min_cycle;Max_cycle;Signal;HPM_P1;HPM_P2
2024/01/29 00:00:04;;;;;;;;;14.75;11.75;;;;;20.80;42.29;102287.78;6366968;22;46809;-82
2024/01/29 00:02:30;;;;;;;;;13.50;10.75;;;;;20.97;42.18;102315.41;6367623;22;45315;-82
2024/01/29 00:04:56;;;;;;;;;12.50;12.50;;;;;20.95;42.01;102312.88;6367775;22;45458;-81
2024/01/29 00:07:21;;;;;;;;;12.25;12.00;;;;;20.94;42.18;102320.97;6367906;22;46306;-82
2024/01/29 00:09:47;;;;;;;;;12.00;10.50;;;;;20.94;42.14;102324.44;6367592;22;45351;-82
2024/01/29 00:12:12;;;;;;;;;11.25;11.25;;;;;20.80;41.62;102304.50;6339787;22;45348;-82
2024/01/29 00:14:37;;;;;;;;;13.50;11.75;;;;;20.92;41.75;102325.56;6368033;22;45550;-82
2024/01/29 00:17:03;;;;;;;;;11.50;11.50;;;;;20.85;41.99;102312.84;6367577;22;53428;-82
2024/01/29 00:19:28;;;;;;;;;12.00;12.00;;;;;20.87;42.32;102322.47;6367725;22;45195;-81
2024/01/29 00:21:54;;;;;;;;;12.75;11.00;;;;;20.90;42.03;102316.91;6367491;22;52654;-82
2024/01/29 00:24:19;;;;;;;;;15.00;13.75;;;;;20.88;41.98;102314.41;6367750;22;45374;-82
2024/01/29 00:26:44;;;;;;;;;11.25;11.25;;;;;20.84;41.80;102303.25;6367749;22;47701;-81
2024/01/29 00:29:09;;;;;;;;;13.50;12.00;;;;;20.87;41.81;102322.47;6367846;22;47852;-81
2024/01/29 00:31:35;;;;;;;;;15.50;12.50;;;;;20.81;41.58;102314.13;6367592;22;45379;-81
2024/01/29 00:34:00;;;;;;;;;15.00;13.25;;;;;20.84;42.16;102332.34;6339452;22;45459;-81
2024/01/29 00:36:25;;;;;;;;;13.25;13.25;;;;;20.84;41.74;102339.47;6367734;22;46043;-81
2024/01/29 00:38:51;;;;;;;;;15.75;13.00;;;;;20.84;41.80;102332.34;6339204;22;45222;-81
2024/01/29 00:41:16;;;;;;;;;15.25;12.00;;;;;20.85;41.87;102328.72;6367484;22;52288;-82
2024/01/29 00:43:41;;;;;;;;;13.25;11.75;;;;;20.80;41.59;102322.16;6368131;22;45226;-82
2024/01/29 00:46:07;;;;;;;;;11.25;10.50;;;;;20.87;41.90;102341.00;6367508;22;45305;-82
2024/01/29 00:48:32;;;;;;;;;11.00;11.00;;;;;20.78;41.55;102314.38;6367896;22;45288;-81
2024/01/29 00:50:57;;;;;;;;;16.25;15.00;;;;;20.89;41.93;102317.88;6339569;22;45275;-81
2024/01/29 00:53:22;;;;;;;;;13.00;12.00;;;;;20.88;41.81;102324.97;6367750;22;45256;-81
2024/01/29 00:55:48;;;;;;;;;13.50;12.50;;;;;20.88;41.71;102324.97;6368075;22;45291;-81
2024/01/29 00:58:14;;;;;;;;;12.25;12.00;;;;;20.76;41.78;102295.16;6366994;22;52084;-81
2024/01/29 01:00:41;;;;;;;;;13.00;9.75;;;;;20.71;41.33;102297.38;6367719;22;45352;-81
2024/01/29 01:03:10;;;;;;;;;12.00;8.50;;;;;20.83;42.01;102322.75;6367121;22;45231;-81
2024/01/29 01:05:36;;;;;;;;;16.00;12.00;;;;;20.76;41.45;102307.56;6367350;22;46099;-82
2024/01/29 01:08:02;;;;;;;;;13.25;11.75;;;;;20.80;41.42;102316.88;6367955;22;45170;-81
2024/01/29 01:10:27;;;;;;;;;8.50;6.50;;;;;20.88;41.62;102318.84;6369150;22;45362;-81
2024/01/29 01:12:53;;;;;;;;;12.00;12.00;;;;;20.80;41.50;102304.50;6368411;22;47654;-81
2024/01/29 01:15:19;;;;;;;;;14.50;12.75;;;;;20.79;41.39;102305.44;6368680;22;45345;-81
2024/01/29 01:17:46;;;;;;;;;13.25;12.00;;;;;20.89;41.76;102313.44;6368942;22;45468;-81
2024/01/29 01:20:11;;;;;;;;;11.50;11.50;;;;;20.88;41.71;102313.56;6368956;22;45379;-81
2024/01/29 01:22:37;;;;;;;;;13.50;13.50;;;;;20.83;41.52;102314.81;6368209;22;45409;-82
2024/01/29 01:25:03;;;;;;;;;11.00;10.00;;;;;20.82;41.66;102305.19;6369156;22;46066;-81
2024/01/29 01:27:28;;;;;;;;;17.25;12.75;;;;;20.87;41.47;102319.84;6368108;22;45249;-81
2024/01/29 01:29:54;;;;;;;;;13.50;12.25;;;;;20.85;41.24;102315.50;6368838;22;45287;-81
2024/01/29 01:32:20;;;;;;;;;12.50;12.50;;;;;20.78;41.61;102306.44;6368286;22;45459;-81
2024/01/29 01:34:45;;;;;;;;;11.50;11.50;;;;;20.88;41.29;102329.44;6368396;22;45981;-81
2024/01/29 01:37:10;;;;;;;;;13.00;10.00;;;;;20.84;41.44;102329.69;6369044;22;45222;-81
2024/01/29 01:39:36;;;;;;;;;10.75;9.75;;;;;20.75;41.16;102319.94;6340453;22;45239;-82
2024/01/29 01:42:01;;;;;;;;;14.00;11.50;;;;;20.84;41.53;102321.75;6368572;22;45098;-81
2024/01/29 01:44:27;;;;;;;;;13.25;13.25;;;;;20.84;41.50;102320.94;6368201;22;46147;-81
2024/01/29 01:46:52;;;;;;;;;13.00;11.25;;;;;20.87;41.20;102328.59;6368558;22;45307;-81
2024/01/29 01:49:18;;;;;;;;;12.25;11.75;;;;;20.87;41.63;102328.59;6369247;22;45633;-81
2024/01/29 01:51:45;;;;;;;;;12.75;11.00;;;;;20.88;41.53;102327.63;6368536;22;45335;-80
2024/01/29 01:54:13;;;;;;;;;14.50;13.25;;;;;20.74;41.23;102308.50;6368236;22;46346;-81
2024/01/29 01:56:39;;;;;;;;;12.25;12.25;;;;;20.87;41.24;102327.78;6368781;22;45422;-81
2024/01/29 01:59:07;;;;;;;;;16.50;12.75;;;;;20.77;41.48;102317.16;6368183;22;45223;-81
2024/01/29 02:01:32;;;;;;;;;9.00;8.75;;;;;20.85;41.00;102330.53;6369063;22;45371;-81
2024/01/29 02:03:58;;;;;;;;;11.75;11.75;;;;;20.85;41.12;102339.31;6368381;22;46837;-82
2024/01/29 02:06:24;;;;;;;;;19.00;13.25;;;;;20.74;41.49;102324.38;6368888;22;45299;-82
2024/01/29 02:08:49;;;;;;;;;15.50;12.00;;;;;20.86;41.27;102340.16;6368669;22;45299;-81
2024/01/29 02:11:15;;;;;;;;;12.00;11.00;;;;;20.71;41.42;102321.19;6368289;22;45244;-81
2024/01/29 02:13:40;;;;;;;;;13.25;10.75;;;;;20.72;41.75;102323.69;6368628;22;45864;-82
2024/01/29 02:16:06;;;;;;;;;15.75;11.75;;;;;20.78;41.39;102330.25;6367909;22;49798;-83
2024/01/29 02:18:31;;;;;;;;;13.00;13.00;;;;;20.87;41.17;102347.09;6368668;22;45367;-82
2024/01/29 02:20:56;;;;;;;;;14.25;11.25;;;;;20.84;41.01;102342.09;6368255;22;45365;-82
2024/01/29 02:23:22;;;;;;;;;10.75;10.75;;;;;20.87;41.29;102355.03;6368774;22;45331;-81
2024/01/29 02:25:47;;;;;;;;;14.50;13.00;;;;;20.73;41.52;102329.81;6368539;22;45238;-82
2024/01/29 02:28:12;;;;;;;;;10.50;9.00;;;;;20.75;41.30;102335.81;6368599;22;45167;-82
2024/01/29 02:30:38;;;;;;;;;12.50;12.50;;;;;20.87;41.26;102351.59;6340321;22;45343;-81
2024/01/29 02:33:04;;;;;;;;;10.25;9.75;;;;;20.85;41.34;102352.53;6368746;22;45892;-80
2024/01/29 02:35:29;;;;;;;;;13.25;11.75;;;;;20.63;41.08;102320.03;6368262;22;45233;-81
2024/01/29 02:37:54;;;;;;;;;13.25;12.75;;;;;20.73;41.00;102328.03;6368858;22;45224;-81
2024/01/29 02:40:20;;;;;;;;;14.75;10.25;;;;;20.77;41.01;102339.16;6368665;22;45406;-82
2024/01/29 02:42:45;;;;;;;;;12.75;11.50;;;;;20.69;41.25;102323.94;6368253;22;46239;-81
2024/01/29 02:45:10;;;;;;;;;11.50;10.75;;;;;20.71;41.13;102335.22;6368166;22;45211;-82
2024/01/29 02:47:36;;;;;;;;;12.50;10.75;;;;;20.83;41.17;102349.19;6368719;22;45209;-81
2024/01/29 02:50:01;;;;;;;;;1.75;1.25;;;;;20.81;41.12;102351.16;6368910;22;45218;-81
2024/01/29 02:52:26;;;;;;;;;9.50;9.50;;;;;20.84;41.34;102348.22;6367920;22;46235;-81
2024/01/29 02:54:52;;;;;;;;;15.50;12.25;;;;;20.80;41.01;102349.47;6368542;22;45105;-81
2024/01/29 02:57:23;;;;;;;;;12.50;11.75;;;;;20.76;41.24;102329.56;6367755;22;45310;-81
2024/01/29 02:59:49;;;;;;;;;11.75;10.25;;;;;20.76;41.38;102334.00;6368322;22;45459;-82
2024/01/29 03:02:14;;;;;;;;;12.00;12.00;;;;;20.58;40.86;102308.22;6367886;22;47168;-81
2024/01/29 03:04:39;;;;;;;;;10.75;10.75;;;;;20.81;40.87;102339.72;6368316;22;47406;-82
2024/01/29 03:07:05;;;;;;;;;11.25;10.50;;;;;20.80;40.96;102346.81;6368722;22;45288;-81
2024/01/29 03:09:30;;;;;;;;;10.75;9.75;;;;;20.83;41.27;102356.28;6367634;22;64529;-81
2024/01/29 03:11:56;;;;;;;;;11.25;11.25;;;;;20.72;41.11;102338.72;6367314;22;56623;-80
2024/01/29 03:14:21;;;;;;;;;14.50;11.50;;;;;20.82;41.42;102347.50;6367776;22;45308;-81
2024/01/29 03:16:46;;;;;;;;;12.25;11.25;;;;;20.81;41.10;102348.50;6368449;22;45225;-80
2024/01/29 03:19:12;;;;;;;;;14.75;11.00;;;;;20.78;40.74;102346.13;6368487;22;45427;-80
2024/01/29 03:21:37;;;;;;;;;10.00;10.00;;;;;20.80;41.32;102340.69;6367772;22;46015;-80
2024/01/29 03:24:03;;;;;;;;;11.00;10.50;;;;;20.76;40.85;102329.56;6367860;22;52926;-81
2024/01/29 03:26:28;;;;;;;;;13.50;12.00;;;;;20.74;40.87;102321.75;6367843;22;45279;-81
2024/01/29 03:28:54;;;;;;;;;13.00;11.25;;;;;20.81;41.14;102331.78;6367908;22;45773;-81
2024/01/29 03:31:19;;;;;;;;;14.00;11.75;;;;;20.81;40.74;102337.09;6366905;22;46931;-81
2024/01/29 03:33:45;;;;;;;;;9.00;7.00;;;;;20.69;41.19;102320.47;6367738;22;45250;-80
2024/01/29 03:36:11;;;;;;;;;13.00;12.50;;;;;20.66;40.86;102310.19;6368882;22;45299;-81
2024/01/29 03:38:36;;;;;;;;;15.75;12.75;;;;;20.77;41.06;102325.06;6367787;22;45233;-81
2024/01/29 03:41:01;;;;;;;;;11.00;11.00;;;;;20.83;41.02;102325.41;6367209;22;46191;-81
2024/01/29 03:43:27;;;;;;;;;17.25;15.25;;;;;20.76;40.75;102318.13;6368168;22;45362;-81
2024/01/29 03:45:55;;;;;;;;;13.50;11.00;;;;;20.83;41.00;102325.41;6368756;22;45239;-82
2024/01/29 03:48:21;;;;;;;;;10.50;10.00;;;;;20.81;40.69;102321.22;6368528;22;45473;-80
2024/01/29 03:50:46;;;;;;;;;15.00;11.75;;;;;20.77;40.69;102318.00;6368404;22;45460;-81
2024/01/29 03:53:11;;;;;;;;;12.50;10.75;;;;;20.80;41.01;102323.00;6368136;22;45221;-80
2024/01/29 03:55:37;;;;;;;;;12.75;11.75;;;;;20.53;41.10;102279.53;6368143;22;45152;-80
2024/01/29 03:58:02;;;;;;;;;14.00;12.00;;;;;20.84;41.14;102334.16;6368343;22;45402;-80
2024/01/29 04:00:30;;;;;;;;;10.75;10.75;;;;;20.85;41.05;102338.47;6367229;22;47200;-80
2024/01/29 04:02:55;;;;;;;;;17.50;13.75;;;;;20.85;40.81;102331.38;6367515;22;45260;-80
2024/01/29 04:05:21;;;;;;;;;12.75;11.50;;;;;20.75;41.03;102314.66;6368246;22;45332;-80
2024/01/29 04:07:46;;;;;;;;;12.50;11.25;;;;;20.48;40.54;102277.28;6367861;22;45436;-80
2024/01/29 04:10:12;;;;;;;;;11.00;11.00;;;;;20.76;40.60;102312.84;6367333;22;46118;-80
2024/01/29 04:12:37;;;;;;;;;11.75;11.25;;;;;20.83;40.95;102327.19;6367791;22;45290;-82
2024/01/29 04:15:03;;;;;;;;;12.00;12.00;;;;;20.83;40.83;102329.84;6368237;22;45159;-80
2024/01/29 04:17:28;;;;;;;;;10.00;10.00;;;;;20.71;41.09;102315.91;6367669;22;45214;-80
2024/01/29 04:19:54;;;;;;;;;12.00;10.00;;;;;20.81;40.95;102334.44;6368016;22;45889;-81
2024/01/29 04:22:19;;;;;;;;;12.00;11.00;;;;;20.77;40.86;102315.34;6367177;22;45226;-81
2024/01/29 04:24:44;;;;;;;;;11.25;11.00;;;;;20.69;41.04;102310.72;6367088;22;58157;-81
2024/01/29 04:27:10;;;;;;;;;15.50;13.00;;;;;20.79;40.53;102329.25;6367336;22;45419;-80
2024/01/29 04:29:35;;;;;;;;;12.00;11.00;;;;;20.79;40.77;102331.91;6366717;22;62981;-80
2024/01/29 04:32:00;;;;;;;;;13.75;10.00;;;;;20.79;40.54;102326.63;6367335;22;45232;-80
2024/01/29 04:34:26;;;;;;;;;11.00;10.50;;;;;20.79;40.59;102325.81;6367603;22;45205;-80
2024/01/29 04:36:51;;;;;;;;;11.25;11.00;;;;;20.78;40.91;102324.97;6367689;22;45732;-81
2024/01/29 04:39:17;;;;;;;;;10.25;10.25;;;;;20.77;40.78;102312.69;6367285;22;46270;-80
2024/01/29 04:41:42;;;;;;;;;12.00;10.50;;;;;20.77;40.76;102312.69;6367970;22;45417;-80
2024/01/29 04:44:07;;;;;;;;;12.00;11.00;;;;;20.63;40.48;102296.22;6368972;22;52040;-80
2024/01/29 04:46:33;;;;;;;;;12.75;10.75;;;;;20.76;40.51;102318.97;6368301;22;45517;-80
2024/01/29 04:48:58;;;;;;;;;11.75;11.75;;;;;20.73;40.84;102306.03;6368997;22;45245;-80
2024/01/29 04:51:27;;;;;;;;;11.75;10.00;;;;;20.75;40.71;102312.00;6368344;22;45351;-81
2024/01/29 04:53:52;;;;;;;;;9.50;8.25;;;;;20.64;40.46;102299.72;6369092;22;45249;-79
2024/01/29 04:56:17;;;;;;;;;13.50;11.25;;;;;20.79;40.67;102320.50;6368932;22;45487;-78
2024/01/29 04:58:43;;;;;;;;;12.00;10.75;;;;;20.80;40.85;102328.31;6368259;22;46428;-80
2024/01/29 05:01:09;;;;;;;;;10.50;9.00;;;;;20.70;40.75;102317.72;6369088;22;45235;-78
2024/01/29 05:03:35;;;;;;;;;11.50;11.00;;;;;20.64;40.59;102305.00;6368531;22;45169;-80
2024/01/29 05:06:00;;;;;;;;;12.25;10.50;;;;;20.65;40.22;102314.63;6368448;22;45426;-81
2024/01/29 05:08:25;;;;;;;;;12.00;10.75;;;;;20.81;40.63;102337.94;6368665;22;45207;-80
2024/01/29 05:10:51;;;;;;;;;9.50;9.50;;;;;20.77;40.45;102328.56;6339382;22;55441;-81
2024/01/29 05:13:16;;;;;;;;;9.75;9.25;;;;;20.70;40.55;102324.78;6340681;22;45232;-81
2024/01/29 05:15:41;;;;;;;;;11.00;10.00;;;;;20.81;40.56;102348.50;6368641;22;45196;-79
2024/01/29 05:18:07;;;;;;;;;13.25;11.50;;;;;20.80;40.50;102344.19;6368474;22;46232;-82
2024/01/29 05:20:32;;;;;;;;;12.00;9.00;;;;;20.81;40.46;102347.66;6368777;22;45458;-81
2024/01/29 05:22:57;;;;;;;;;12.00;10.75;;;;;20.74;40.67;102340.25;6368066;22;45231;-81
2024/01/29 05:25:23;;;;;;;;;12.50;11.25;;;;;20.79;40.43;102353.06;6368562;22;47809;-80
2024/01/29 05:27:48;;;;;;;;;11.75;11.00;;;;;20.78;40.75;102353.22;6368489;22;46011;-80
2024/01/29 05:30:15;;;;;;;;;12.75;11.00;;;;;20.78;40.62;102353.22;6367879;22;45264;-80
2024/01/29 05:32:40;;;;;;;;;9.00;9.00;;;;;20.63;40.59;102332.44;6368479;22;45307;-80
2024/01/29 05:35:06;;;;;;;;;8.25;8.25;;;;;20.67;40.59;102331.19;6368804;22;45394;-81
2024/01/29 05:37:33;;;;;;;;;14.50;13.00;;;;;20.62;40.46;102325.47;6366471;22;46115;-81
2024/01/29 05:39:59;;;;;;;;;11.50;9.00;;;;;20.76;40.54;102345.44;6366483;22;45245;-80
2024/01/29 05:42:24;;;;;;;;;11.50;9.25;;;;;20.76;40.54;102345.44;6367384;22;45209;-80
2024/01/29 05:44:50;;;;;;;;;10.75;10.75;;;;;20.73;40.28;102341.25;6366446;22;54245;-80
2024/01/29 05:47:16;;;;;;;;;12.25;9.75;;;;;20.76;40.70;102348.06;6366881;22;46037;-80
2024/01/29 05:49:41;;;;;;;;;11.50;9.50;;;;;20.73;40.10;102353.63;6366941;22;45248;-81
2024/01/29 05:52:07;;;;;;;;;10.75;10.00;;;;;20.70;40.62;102345.94;6366695;22;45265;-80
2024/01/29 05:54:32;;;;;;;;;13.00;10.50;;;;;20.75;40.57;102356.97;6366798;22;45220;-80
2024/01/29 05:56:57;;;;;;;;;10.50;10.25;;;;;20.76;40.55;102355.16;6367214;22;45629;-80
2024/01/29 05:59:23;;;;;;;;;11.75;10.25;;;;;20.67;40.30;102340.94;6366236;22;45411;-80
2024/01/29 06:01:48;;;;;;;;;12.00;12.00;;;;;20.70;40.47;102346.78;6366615;22;45384;-80
2024/01/29 06:04:13;;;;;;;;;13.00;10.75;;;;;20.58;40.51;102332.00;6366875;22;45250;-80
2024/01/29 06:06:39;;;;;;;;;12.75;10.25;;;;;20.58;40.54;102338.09;6337813;22;46357;-81
2024/01/29 06:09:09;;;;;;;;;12.75;12.00;;;;;20.76;40.96;102371.03;6366494;22;45335;-81
2024/01/29 06:11:35;;;;;;;;;13.25;10.50;;;;;20.44;40.64;102312.88;6366215;22;45223;-81
2024/01/29 06:14:00;;;;;;;;;11.00;10.50;;;;;20.76;40.54;102363.09;6366620;22;45364;-81
2024/01/29 06:16:25;;;;;;;;;13.75;12.00;;;;;20.73;40.82;102358.91;6366167;22;46032;-80
2024/01/29 06:18:51;;;;;;;;;10.25;10.25;;;;;20.69;40.89;102358.34;6366297;22;45158;-81
2024/01/29 06:21:16;;;;;;;;;10.50;9.25;;;;;20.73;40.71;102359.75;6366122;22;49333;-80
2024/01/29 06:23:42;;;;;;;;;9.00;9.00;;;;;20.79;40.49;102368.13;6366942;22;45290;-80
2024/01/29 06:26:07;;;;;;;;;10.50;10.50;;;;;20.73;40.14;102372.16;6366319;22;46151;-87
2024/01/29 06:28:32;;;;;;;;;8.25;8.25;;;;;20.79;40.72;102370.78;6366750;22;45349;-82
2024/01/29 06:30:58;;;;;;;;;12.50;9.75;;;;;20.72;40.30;102366.00;6366567;22;45269;-84
2024/01/29 06:33:24;;;;;;;;;9.00;8.00;;;;;20.75;40.47;102375.47;6366276;22;45316;-84
2024/01/29 06:35:49;;;;;;;;;11.00;10.00;;;;;20.72;41.04;102368.66;6366405;22;45375;-82
2024/01/29 06:38:14;;;;;;;;;10.50;10.00;;;;;20.60;40.89;102352.06;6316154;22;1137467;-86
2024/01/29 06:40:40;;;;;;;;;10.00;10.00;;;;;20.74;41.16;102376.44;6367888;22;49172;-86
2024/01/29 06:43:05;;;;;;;;;9.75;9.00;;;;;20.66;41.08;102353.31;6367735;22;54320;-85
2024/01/29 06:45:30;;;;;;;;;11.00;11.00;;;;;20.76;41.23;102378.97;6367441;22;46194;-81
2024/01/29 06:47:56;;;;;;;;;9.00;9.00;;;;;20.76;41.30;102381.63;6339095;22;45247;-78
2024/01/29 06:50:22;;;;;;;;;12.25;9.50;;;;;20.76;41.31;102384.25;6367713;22;45343;-81
2024/01/29 06:52:47;;;;;;;;;8.25;8.25;;;;;20.72;41.20;102373.09;6367696;22;49270;-80
2024/01/29 06:55:12;;;;;;;;;11.00;9.75;;;;;20.77;41.10;102375.34;6368222;22;46127;-78
2024/01/29 06:57:38;;;;;;;;;10.50;8.75;;;;;20.77;41.32;102381.47;6339909;22;45261;-79
2024/01/29 07:00:03;;;;;;;;;10.25;9.25;;;;;20.58;41.40;102351.34;6368510;22;45290;-79
2024/01/29 07:02:29;;;;;;;;;10.00;10.00;;;;;20.59;41.09;102357.47;6367931;22;45396;-80
2024/01/29 07:04:55;;;;;;;;;11.75;9.75;;;;;20.66;41.09;102371.00;6368181;22;45281;-79
2024/01/29 07:07:20;;;;;;;;;11.50;9.25;;;;;20.59;41.10;102362.75;6368342;22;45208;-79
2024/01/29 07:09:45;;;;;;;;;11.00;11.00;;;;;20.68;40.95;102383.13;6368299;22;45702;-78
2024/01/29 07:12:14;;;;;;;;;14.25;11.50;;;;;20.63;40.82;102372.09;6368050;22;45355;-78
2024/01/29 07:14:40;;;;;;;;;13.25;11.00;;;;;20.63;41.30;102375.56;6367616;22;46017;-76
2024/01/29 07:17:05;;;;;;;;;10.25;8.75;;;;;20.78;40.89;102391.09;6367978;22;45292;-83
2024/01/29 07:19:33;;;;;;;;;12.50;9.75;;;;;20.79;40.65;102398.03;6368111;22;45324;-75
2024/01/29 07:21:59;;;;;;;;;10.00;10.00;;;;;20.79;40.83;102402.50;6367637;22;45430;-74
2024/01/29 07:24:25;;;;;;;;;15.00;14.00;;;;;20.76;41.25;102403.63;6368057;22;46159;-86
2024/01/29 07:26:50;;;;;;;;;9.00;9.00;;;;;20.78;41.44;102399.03;6367633;22;45179;-77
2024/01/29 07:29:16;;;;;;;;;9.00;9.00;;;;;20.78;41.10;102398.19;6368519;22;45226;-78
2024/01/29 07:31:41;;;;;;;;;11.25;10.75;;;;;20.81;41.45;102403.22;6367265;22;45389;-77
2024/01/29 07:34:07;;;;;;;;;10.75;8.25;;;;;20.80;41.24;102401.53;6367743;22;46057;-77
2024/01/29 07:36:32;;;;;;;;;9.25;7.25;;;;;20.80;41.09;102406.81;6368084;22;45307;-78
2024/01/29 07:38:57;;;;;;;;;12.50;9.25;;;;;20.58;41.67;102382.25;6368244;22;45431;-78
2024/01/29 07:41:23;;;;;;;;;12.50;9.75;;;;;20.79;41.28;102413.91;6368243;22;45383;-77
2024/01/29 07:43:49;;;;;;;;;10.00;9.75;;;;;20.70;41.25;102399.69;6367711;22;47004;-78
2024/01/29 07:46:15;;;;;;;;;11.00;11.00;;;;;20.76;41.11;102416.00;6367115;22;45316;-77
2024/01/29 07:48:40;;;;;;;;;13.25;10.75;;;;;20.78;41.60;102428.13;6367699;22;45230;-78
2024/01/29 07:51:06;;;;;;;;;11.25;11.25;;;;;20.78;41.00;102424.63;6368219;22;45268;-78
2024/01/29 07:53:32;;;;;;;;;10.50;10.50;;;;;20.77;41.18;102423.78;6367337;22;46128;-78
2024/01/29 07:55:57;;;;;;;;;10.75;10.75;;;;;20.77;41.14;102433.53;6367221;22;60587;-77
2024/01/29 07:58:22;;;;;;;;;12.00;12.00;;;;;20.69;41.49;102424.47;6368281;22;45387;-77
2024/01/29 08:00:49;;;;;;;;;11.75;11.75;;;;;20.71;41.61;102432.28;6367855;22;45154;-78
2024/01/29 08:03:14;;;;;;;;;12.00;11.75;;;;;20.75;41.49;102436.31;6367450;22;47389;-77
2024/01/29 08:05:39;;;;;;;;;11.50;10.25;;;;;20.58;40.96;102417.44;6368218;22;45463;-78
2024/01/29 08:08:05;;;;;;;;;11.75;10.75;;;;;20.76;41.02;102447.75;6368211;22;45604;-78
2024/01/29 08:10:31;;;;;;;;;9.00;8.00;;;;;20.74;41.59;102448.69;6367812;22;45409;-78
2024/01/29 08:12:56;;;;;;;;;7.75;7.75;;;;;20.74;41.36;102446.06;6367774;22;46105;-78
2024/01/29 08:15:22;;;;;;;;;14.00;9.00;;;;;20.73;41.21;102454.13;6367696;22;45272;-78
2024/01/29 08:17:48;;;;;;;;;12.25;10.50;;;;;20.73;41.23;102454.13;6367356;22;45856;-78
2024/01/29 08:20:13;;;;;;;;;10.00;10.00;;;;;20.62;41.27;102426.81;6368106;22;45403;-79
2024/01/29 08:22:38;;;;;;;;;11.00;9.25;;;;;20.68;41.47;102445.75;6367807;22;45982;-78
2024/01/29 08:25:04;;;;;;;;;14.25;11.50;;;;;20.76;41.49;102458.31;6367992;22;45314;-78
2024/01/29 08:27:31;;;;;;;;;10.25;10.00;;;;;20.76;41.46;102456.53;6367977;22;45269;-78
2024/01/29 08:29:57;;;;;;;;;12.25;11.00;;;;;20.66;41.86;102445.88;6367218;22;45396;-77
2024/01/29 08:32:23;;;;;;;;;14.00;9.50;;;;;20.49;41.08;102416.44;6367158;22;47038;-77
2024/01/29 08:34:49;;;;;;;;;10.25;9.00;;;;;20.80;41.23;102460.56;6367530;22;45254;-77
2024/01/29 08:37:14;;;;;;;;;12.50;9.50;;;;;20.81;41.24;102461.41;6366859;22;45237;-77
2024/01/29 08:39:40;;;;;;;;;11.50;9.25;;;;;20.81;41.52;102461.41;6367410;22;45213;-78
2024/01/29 08:42:06;;;;;;;;;10.50;9.75;;;;;20.80;41.25;102462.38;6367506;22;46288;-77
2024/01/29 08:44:32;;;;;;;;;9.75;9.75;;;;;20.80;40.99;102455.28;6367002;22;45212;-78
2024/01/29 08:46:57;;;;;;;;;9.50;9.50;;;;;20.79;41.25;102458.88;6367400;22;45268;-77
2024/01/29 08:49:23;;;;;;;;;11.75;10.75;;;;;20.77;41.58;102458.19;6367331;22;45346;-78
2024/01/29 08:51:48;;;;;;;;;14.00;10.75;;;;;20.78;41.15;102459.03;6367494;22;46544;-78
2024/01/29 08:54:14;;;;;;;;;11.75;10.75;;;;;20.76;41.39;102456.53;6366936;22;45346;-78
2024/01/29 08:56:41;;;;;;;;;11.25;11.25;;;;;20.72;41.73;102455.09;6367394;22;45385;-77
2024/01/29 08:59:07;;;;;;;;;10.50;9.50;;;;;20.77;41.34;102460.81;6366768;22;45332;-77
2024/01/29 09:01:33;;;;;;;;;12.75;8.75;;;;;20.68;41.22;102445.75;6367107;22;46353;-78
2024/01/29 09:03:58;;;;;;;;;8.25;7.50;;;;;20.70;41.22;102451.75;6366865;22;45262;-77
2024/01/29 09:06:23;;;;;;;;;9.75;9.75;;;;;20.71;41.51;102459.53;6367846;22;45237;-77
2024/01/29 09:08:49;;;;;;;;;9.75;8.75;;;;;20.76;41.97;102459.16;6367308;22;45712;-77
2024/01/29 09:11:14;;;;;;;;;8.33;8.00;;;;;20.68;41.68;102457.19;6367480;22;45251;-79
2024/01/29 09:13:39;;;;;;;;;11.50;10.00;;;;;20.76;41.21;102461.81;6366606;22;55085;-78
2024/01/29 09:16:05;;;;;;;;;11.25;10.75;;;;;20.77;41.79;102465.28;6367282;22;45216;-77
2024/01/29 09:18:30;;;;;;;;;9.25;8.50;;;;;20.74;41.40;102453.16;6367589;22;45206;-78
2024/01/29 09:20:56;;;;;;;;;12.25;10.25;;;;;20.68;41.78;102441.31;6366733;22;46218;-78
2024/01/29 09:23:21;;;;;;;;;9.25;9.00;;;;;20.77;41.55;102460.81;6366553;22;57509;-77
2024/01/29 09:25:46;;;;;;;;;11.00;11.00;;;;;20.79;41.37;102452.78;6367520;22;45118;-77
2024/01/29 09:28:12;;;;;;;;;9.50;9.25;;;;;20.78;41.76;102459.88;6367129;22;45729;-77
2024/01/29 09:30:37;;;;;;;;;11.75;10.75;;;;;20.73;41.40;102451.50;6368745;22;45334;-77
2024/01/29 09:33:03;;;;;;;;;8.25;8.25;;;;;20.80;41.50;102460.56;6368223;22;45351;-77
2024/01/29 09:35:28;;;;;;;;;8.00;8.00;;;;;20.73;41.67;102443.56;6368394;22;45346;-77
2024/01/29 09:37:53;;;;;;;;;9.75;8.75;;;;;20.81;41.50;102456.97;6368019;22;50615;-77
2024/01/29 09:40:20;;;;;;;;;11.75;9.75;;;;;20.82;41.76;102460.44;6368743;22;45378;-77
2024/01/29 09:42:49;;;;;;;;;7.75;7.75;;;;;20.73;41.65;102448.84;6367951;22;45280;-77
2024/01/29 09:45:23;;;;;;;;;9.25;8.00;;;;;20.81;41.58;102456.13;6368310;22;45220;-77
2024/01/29 09:47:50;;;;;;;;;9.25;8.25;;;;;20.79;41.47;102450.13;6368356;22;45358;-78
2024/01/29 09:50:16;;;;;;;;;9.75;9.75;;;;;20.78;41.97;102445.78;6368583;22;45244;-77
2024/01/29 09:52:43;;;;;;;;;10.00;9.00;;;;;20.73;41.44;102435.63;6368011;22;45293;-77
2024/01/29 09:55:11;;;;;;;;;9.50;9.50;;;;;20.73;41.98;102438.25;6368423;22;45294;-78
2024/01/29 09:57:37;;;;;;;;;11.25;9.50;;;;;20.84;41.73;102458.50;6367605;22;45587;-77
2024/01/29 10:00:03;;;;;;;;;10.50;10.00;;;;;20.72;41.52;102436.56;6368499;22;45300;-77
2024/01/29 10:02:32;;;;;;;;;10.75;8.25;;;;;20.79;41.48;102453.59;6368451;22;45180;-77
2024/01/29 10:04:57;;;;;;;;;10.75;9.00;;;;;20.78;41.55;102453.72;6368461;22;45201;-77
2024/01/29 10:07:23;;;;;;;;;9.50;9.50;;;;;20.83;41.79;102462.13;6340260;22;45445;-77
2024/01/29 10:09:51;;;;;;;;;9.50;8.00;;;;;20.85;41.81;102463.66;6368552;22;45272;-76
2024/01/29 10:12:23;;;;;;;;;8.25;8.25;;;;;20.85;41.34;102462.81;6367413;22;45256;-77
2024/01/29 10:14:49;;;;;;;;;9.50;9.50;;;;;20.84;41.79;102456.69;6368220;22;45356;-77
2024/01/29 10:17:14;;;;;;;;;9.50;8.00;;;;;20.78;41.40;102451.09;6368102;22;45448;-77
2024/01/29 10:19:43;;;;;;;;;8.75;8.75;;;;;20.87;41.79;102460.06;6368088;22;46783;-77
2024/01/29 10:22:14;;;;;;;;;9.00;8.75;;;;;20.87;41.35;102460.06;6368041;22;45252;-77
2024/01/29 10:24:40;;;;;;;;;9.75;9.75;;;;;20.80;41.46;102452.63;6368185;22;45340;-77
2024/01/29 10:27:07;;;;;;;;;9.50;8.00;;;;;20.87;41.88;102466.16;6368219;22;45432;-76
2024/01/29 10:29:34;;;;;;;;;8.00;7.75;;;;;20.87;41.58;102468.81;6367876;22;46126;-77
2024/01/29 10:31:59;;;;;;;;;8.50;7.50;;;;;20.79;41.71;102461.53;6368178;22;45235;-77
2024/01/29 10:34:24;;;;;;;;;7.50;6.75;;;;;20.88;41.54;102472.28;6368392;22;45204;-76
2024/01/29 10:36:51;;;;;;;;;10.75;10.75;;;;;20.88;41.45;102474.94;6368414;22;45220;-77
2024/01/29 10:39:20;;;;;;;;;8.50;7.25;;;;;20.89;41.35;102473.97;6367920;22;47103;-77
2024/01/29 10:41:49;;;;;;;;;8.00;8.00;;;;;20.81;41.42;102469.34;6367638;22;45289;-76
2024/01/29 10:44:16;;;;;;;;;6.25;6.25;;;;;20.89;41.68;102482.75;6368519;22;45220;-77
2024/01/29 10:46:45;;;;;;;;;9.00;7.75;;;;;20.90;41.54;102476.47;6368010;22;45212;-77
2024/01/29 10:49:11;;;;;;;;;9.25;9.25;;;;;20.87;41.53;102474.09;6367627;22;46110;-77
2024/01/29 10:51:36;;;;;;;;;9.25;8.50;;;;;20.74;41.47;102448.69;6368006;22;45295;-77
2024/01/29 10:54:02;;;;;;;;;8.33;8.33;;;;;20.89;41.56;102482.75;6368480;22;45250;-77
2024/01/29 10:56:28;;;;;;;;;10.50;8.75;;;;;20.89;41.54;102480.13;6367698;22;45296;-77
2024/01/29 10:58:58;;;;;;;;;6.75;6.75;;;;;20.90;41.29;102483.56;6367691;22;47020;-77
2024/01/29 11:01:24;;;;;;;;;7.50;7.50;;;;;20.89;41.65;102473.97;6367833;22;45433;-76
2024/01/29 11:03:51;;;;;;;;;11.00;8.50;;;;;20.91;41.77;102477.31;6368074;22;45291;-76
2024/01/29 11:06:35;;;;;;;;;10.75;7.75;;;;;20.90;41.26;102473.84;6368032;22;45318;-76